Aérodrome :
LOGIN :

S'inscrire | Disclaimer

   EN    FR    IT 

 










Légende :    VFR   VFR Marginal   IFR   IFR Intensif   IFR Très Intensif
Visi : 
Plafond : 
>= 8 km
>= 3000ft
5 à 8 km
1000 à 3000 ft
1500m à 5 km
500 à 1000 ft
800 à 1500m
200 à 500 ft
< 800m
< 200 ft
Symboles :   Orages  Brouillard  Fortes neiges  Fortes précipitations  Vent > 20 kt
SIGMETs :   Divers  Orages  Givrage  Turbulence  Onde Orograph.  Cendres Volcan.







- Altitude de l'aérodrome : 13 ft
- Code IATA : LYX
- Voir les cartes d'approche


EGMD - Lydd

DERNIER METAR :
  • 161450Z 21009KT 9999 SCT024 11/09 Q1024

METARs EXPIRÉS :
  • 161420Z 20010KT 9000 BKN024 11/09 Q1024
  • 161350Z 19009KT 9000 FEW007 BKN025 10/09 Q1024
  • 161320Z 20009KT 9000 FEW005 BKN008 10/09 Q1024
  • 161250Z 20008KT 9000 BKN004 10/09 Q1025
  • 161220Z 22008KT 9999 BKN005 11/09 Q1025

TAF TAF EGMD
Valide du 16 à 15h jusqu'au 17 à 00h UTC


161405Z 1615/1624 19005KT 9999 SCT012
TEMPO 1615/1624 5000 BR BKN008
PROB40
TEMPO 1615/1624 4000 BKN004
ATIS : +44 1797 322 422
Pas de NOTAMs connus pour ce terrain.



MET'MAP, la Météo Aéronautique d'un coup d'oeil ! - Copyright ORBIFLY Décembre 2007 - Disclaimer

ORBIFLY MET'MAP TEAM :

Programmation & Développement : Alexandra Zaïnal
Conception & Développement : Baudouin d'Aumeries
Co-Programmation & Développement : Marc-Olivier Méhu
Soutien technique & logistique : Manuel Goepfert

Contact : metmap@orbifly.com




SOURCES & CREDITS :

   NOAA